Time;durP1;ratioP1;P1;durP2;ratioP2;P2;SDS_P1;SDS_P2;PMS_P1;PMS_P2;Temp;Humidity;BMP_temperature;BMP_pressure;BME280_temperature;BME280_humidity;BME280_pressure;Samples;Min_cycle;Max_cycle;Signal;HPM_P1;HPM_P2
2022/10/18 00:00:09;;;;;;;779.60;721.22;;;;;;;17.87;69.73;101982.53;695165;28;23454;-61
2022/10/18 00:00:33;;;;;;;786.35;727.67;;;;;;;17.87;69.97;101980.69;692212;28;92391;-62
2022/10/18 00:00:54;;;;;;;789.20;730.55;;;;;;;17.83;69.70;101972.00;694513;28;46306;-62
2022/10/18 00:01:15;;;;;;;772.25;714.05;;;;;;;17.86;69.82;101978.13;692699;28;46334;-62
2022/10/18 00:01:36;;;;;;;778.80;720.40;;;;;;;17.85;69.86;101971.81;693213;28;22416;-63
2022/10/18 00:01:57;;;;;;;806.90;747.80;;;;;;;17.84;69.86;101978.34;693136;28;22369;-63
2022/10/18 00:02:20;;;;;;;815.03;755.63;;;;;;;17.84;69.70;101975.59;693164;28;22515;-63
2022/10/18 00:02:41;;;;;;;803.03;743.92;;;;;;;17.84;70.04;101970.13;692363;28;44167;-63
2022/10/18 00:03:02;;;;;;;803.75;744.75;;;;;;;17.83;69.95;101979.34;693368;28;23375;-63
2022/10/18 00:03:23;;;;;;;813.30;754.00;;;;;;;17.83;69.99;101973.91;692334;28;44438;-63
2022/10/18 00:03:45;;;;;;;839.60;779.60;;;;;;;17.83;70.06;101973.91;693159;28;22393;-63
2022/10/18 00:04:08;;;;;;;832.17;772.50;;;;;;;17.83;70.07;101973.91;692816;28;46357;-63
2022/10/18 00:04:29;;;;;;;849.20;788.92;;;;;;;17.83;70.01;101968.44;692399;28;44427;-63
2022/10/18 00:04:50;;;;;;;864.33;803.65;;;;;;;17.83;70.10;101973.91;693013;28;46443;-63
2022/10/18 00:05:12;;;;;;;875.40;814.38;;;;;;;17.83;70.18;101968.44;695957;28;23511;-63
2022/10/18 00:05:36;;;;;;;827.08;767.33;;;;;;;17.84;70.14;101970.13;696079;28;15020;-63
2022/10/18 00:05:57;;;;;;;791.25;732.50;;;;;;;17.84;70.18;101976.44;695980;28;21534;-63
2022/10/18 00:06:18;;;;;;;776.53;718.10;;;;;;;17.84;70.08;101970.13;695460;28;32218;-63
2022/10/18 00:06:41;;;;;;;780.55;722.05;;;;;;;17.86;70.13;101972.66;695874;28;21525;-64
2022/10/18 00:07:03;;;;;;;786.08;727.28;;;;;;;17.85;70.14;101971.81;693799;28;67265;-63
2022/10/18 00:07:24;;;;;;;794.15;735.10;;;;;;;17.82;70.27;101966.72;695678;28;24098;-63
2022/10/18 00:07:45;;;;;;;782.00;723.50;;;;;;;17.85;70.16;101977.25;695832;28;22465;-64
2022/10/18 00:08:09;;;;;;;798.30;739.38;;;;;;;17.86;70.11;101967.19;694667;28;13724;-62
2022/10/18 00:08:31;;;;;;;794.28;735.42;;;;;;;17.86;70.07;101972.66;692342;28;23464;-62
2022/10/18 00:08:53;;;;;;;831.55;771.67;;;;;;;17.85;70.08;101966.34;693299;28;15090;-63
2022/10/18 00:09:14;;;;;;;825.47;765.88;;;;;;;17.86;70.20;101969.94;693201;28;22343;-63
2022/10/18 00:09:35;;;;;;;815.95;756.63;;;;;;;17.86;70.11;101969.94;693093;28;23387;-62
2022/10/18 00:09:57;;;;;;;800.88;741.78;;;;;;;17.86;70.21;101976.25;693126;28;22415;-63
2022/10/18 00:10:19;;;;;;;794.85;735.97;;;;;;;17.87;70.19;101977.06;694089;28;46763;-62
2022/10/18 00:10:40;;;;;;;831.55;771.72;;;;;;;17.86;70.20;101978.13;695193;28;23688;-62
2022/10/18 00:11:03;;;;;;;885.17;823.77;;;;;;;17.87;70.09;101975.22;694016;28;22798;-62
2022/10/18 00:11:24;;;;;;;889.60;828.08;;;;;;;17.88;70.18;101973.31;691576;28;91927;-61
2022/10/18 00:11:46;;;;;;;831.13;771.30;;;;;;;17.88;70.10;101979.66;693356;28;23748;-63
2022/10/18 00:12:07;;;;;;;795.63;736.72;;;;;;;17.89;70.11;101977.78;692645;28;44379;-61
2022/10/18 00:12:28;;;;;;;785.30;726.70;;;;;;;17.89;70.24;101978.63;693075;28;22222;-61
2022/10/18 00:12:50;;;;;;;792.13;733.35;;;;;;;17.90;69.99;101974.84;692975;28;22385;-62
2022/10/18 00:13:12;;;;;;;793.80;735.00;;;;;;;17.90;70.12;101985.78;692393;28;44380;-62
2022/10/18 00:13:33;;;;;;;806.92;747.78;;;;;;;17.90;70.23;101979.44;691844;28;44399;-62
2022/10/18 00:13:55;;;;;;;803.30;744.33;;;;;;;17.92;69.95;101977.38;693103;28;22397;-61
2022/10/18 00:14:16;;;;;;;790.05;731.42;;;;;;;17.90;70.22;101980.31;692347;28;45092;-63
2022/10/18 00:14:37;;;;;;;820.22;760.80;;;;;;;17.92;69.98;101978.22;692811;28;23418;-62
2022/10/18 00:15:00;;;;;;;841.28;781.28;;;;;;;17.91;70.14;101976.53;694195;28;21538;-63
2022/10/18 00:15:21;;;;;;;791.78;733.05;;;;;;;17.92;70.02;101975.50;693043;28;45242;-63
2022/10/18 00:15:48;;;;;;;796.67;737.78;;;;;;;17.93;70.03;101977.19;692578;28;46333;-62
2022/10/18 00:16:11;;;;;;;807.72;748.50;;;;;;;17.93;70.16;101976.31;690951;28;160947;-63
2022/10/18 00:16:33;;;;;;;807.05;747.83;;;;;;;17.95;70.16;101977.00;690566;28;93071;-63
2022/10/18 00:16:54;;;;;;;879.25;817.95;;;;;;;17.95;69.98;101982.47;691568;28;46806;-63
2022/10/18 00:17:15;;;;;;;877.97;816.38;;;;;;;17.95;70.33;101977.00;692402;28;20040;-62
2022/10/18 00:17:38;;;;;;;828.30;768.47;;;;;;;17.97;70.10;101983.94;692850;28;22413;-62
2022/10/18 00:18:00;;;;;;;783.42;724.88;;;;;;;17.99;70.01;101984.63;691143;28;67494;-63
2022/10/18 00:18:22;;;;;;;774.00;715.58;;;;;;;17.98;69.98;101977.44;691689;28;45269;-63
2022/10/18 00:18:44;;;;;;;795.42;736.35;;;;;;;18.00;69.97;101978.09;691320;28;46317;-62
2022/10/18 00:19:05;;;;;;;804.33;745.22;;;;;;;18.01;69.95;101978.94;692179;28;46516;-63
2022/10/18 00:19:34;;;;;;;795.55;736.65;;;;;;;18.01;69.71;101987.97;691772;28;61733;-63
2022/10/18 00:19:55;;;;;;;790.90;732.10;;;;;;;18.01;69.77;101979.78;690506;28;93223;-61
2022/10/18 00:20:16;;;;;;;801.92;742.92;;;;;;;18.02;69.77;101986.09;692309;28;46176;-63
2022/10/18 00:20:37;;;;;;;823.33;763.63;;;;;;;18.03;69.55;101981.47;692966;28;21545;-62
2022/10/18 00:21:02;;;;;;;791.70;732.97;;;;;;;17.99;69.64;101972.81;692690;28;19417;-62
2022/10/18 00:21:24;;;;;;;794.35;735.50;;;;;;;18.02;69.82;101986.09;689597;28;115147;-62
2022/10/18 00:21:45;;;;;;;796.30;737.42;;;;;;;18.01;69.50;101990.72;692174;28;44390;-63
2022/10/18 00:22:06;;;;;;;801.00;742.03;;;;;;;18.01;69.55;101984.41;692453;28;22437;-61
2022/10/18 00:22:29;;;;;;;793.92;735.08;;;;;;;17.99;69.64;101989.22;692819;28;22199;-61
2022/10/18 00:22:50;;;;;;;788.85;730.15;;;;;;;18.00;69.59;101985.44;693990;28;69431;-62
2022/10/18 00:23:11;;;;;;;794.92;736.15;;;;;;;18.00;69.66;101986.28;695276;28;22256;-63
2022/10/18 00:23:33;;;;;;;788.60;729.80;;;;;;;18.00;69.64;101985.44;694971;28;22398;-63
2022/10/18 00:23:55;;;;;;;795.00;736.20;;;;;;;18.00;69.56;101988.19;694837;28;46370;-62
2022/10/18 00:24:17;;;;;;;802.17;743.17;;;;;;;18.00;69.68;101982.72;692819;28;46465;-63
2022/10/18 00:24:38;;;;;;;870.33;809.33;;;;;;;18.00;69.64;101986.28;691977;28;45283;-62
2022/10/18 00:24:59;;;;;;;888.60;827.15;;;;;;;18.01;69.86;101989.88;692762;28;23407;-63
2022/10/18 00:25:21;;;;;;;830.00;770.22;;;;;;;18.01;69.71;101990.72;692783;28;24406;-63
2022/10/18 00:25:42;;;;;;;798.67;739.63;;;;;;;18.00;69.52;101986.28;692193;28;46603;-61
2022/10/18 00:26:05;;;;;;;793.45;734.60;;;;;;;18.00;69.75;101985.44;693070;28;23546;-62
2022/10/18 00:26:28;;;;;;;787.22;728.63;;;;;;;17.99;69.47;101981.88;691396;28;69355;-63
2022/10/18 00:26:50;;;;;;;791.20;732.45;;;;;;;17.99;69.73;101986.47;691287;28;69378;-63
2022/10/18 00:27:11;;;;;;;790.70;731.70;;;;;;;18.00;69.63;101991.75;691151;28;46446;-63
2022/10/18 00:27:33;;;;;;;788.17;729.38;;;;;;;18.00;69.65;101985.44;694827;28;23764;-63
2022/10/18 00:27:54;;;;;;;783.33;724.75;;;;;;;18.00;69.59;101986.28;692073;28;44552;-62
2022/10/18 00:28:15;;;;;;;787.58;728.92;;;;;;;18.00;69.64;101985.44;692783;28;21379;-63
2022/10/18 00:28:38;;;;;;;794.15;735.35;;;;;;;18.00;69.68;101989.00;692375;28;22406;-62
2022/10/18 00:29:02;;;;;;;787.92;729.22;;;;;;;17.99;69.68;101984.63;691790;28;69410;-63
2022/10/18 00:29:23;;;;;;;792.30;733.58;;;;;;;18.00;69.63;101993.66;693024;28;92297;-60
2022/10/18 00:29:44;;;;;;;798.92;740.03;;;;;;;17.95;69.59;101980.56;695298;28;22391;-61
2022/10/18 00:30:07;;;;;;;806.92;747.80;;;;;;;18.01;69.52;101992.63;695674;28;22404;-62
2022/10/18 00:30:31;;;;;;;817.28;757.85;;;;;;;18.00;69.64;101985.44;694210;28;68417;-62
2022/10/18 00:30:52;;;;;;;798.70;739.78;;;;;;;17.99;69.62;101987.34;693476;28;90826;-61
2022/10/18 00:31:15;;;;;;;789.88;731.17;;;;;;;17.99;69.69;101990.06;694910;28;44392;-61
2022/10/18 00:31:37;;;;;;;796.58;737.72;;;;;;;18.00;69.83;101985.44;694961;28;45274;-61
2022/10/18 00:31:59;;;;;;;792.35;733.75;;;;;;;17.98;69.53;101988.38;694927;28;46405;-61
2022/10/18 00:32:20;;;;;;;806.20;747.15;;;;;;;18.00;69.83;101985.44;694954;28;46366;-62
2022/10/18 00:32:41;;;;;;;816.05;756.75;;;;;;;18.00;69.55;101986.28;693244;28;44147;-61
2022/10/18 00:33:03;;;;;;;811.55;752.42;;;;;;;17.99;69.92;101987.34;692374;28;21536;-62
2022/10/18 00:33:25;;;;;;;789.17;730.58;;;;;;;18.00;69.68;101986.28;692609;28;23508;-60
2022/10/18 00:33:49;;;;;;;815.70;756.38;;;;;;;18.00;69.83;101985.44;691611;28;45269;-62
2022/10/18 00:34:12;;;;;;;812.10;752.88;;;;;;;18.00;69.87;101994.47;690431;28;93197;-62
2022/10/18 00:34:37;;;;;;;788.30;729.65;;;;;;;18.01;69.70;101989.88;692360;28;38654;-62
2022/10/18 00:35:01;;;;;;;786.05;727.45;;;;;;;18.01;69.91;101992.63;691347;28;69440;-61
2022/10/18 00:35:23;;;;;;;794.97;736.08;;;;;;;18.04;69.81;101991.34;689655;28;113429;-62
2022/10/18 00:35:44;;;;;;;809.80;750.50;;;;;;;18.03;69.74;101990.53;693150;28;21500;-60
2022/10/18 00:36:05;;;;;;;808.72;749.53;;;;;;;18.04;69.90;101991.34;692892;28;22426;-62
2022/10/18 00:36:33;;;;;;;856.33;795.70;;;;;;;18.04;69.73;101986.75;691892;28;44522;-62
2022/10/18 00:36:54;;;;;;;870.72;809.65;;;;;;;18.04;69.81;101988.63;688520;28;137912;-62
2022/10/18 00:37:15;;;;;;;867.67;806.55;;;;;;;18.04;69.65;101991.34;692812;28;21515;-62
2022/10/18 00:37:36;;;;;;;833.95;773.95;;;;;;;18.05;69.69;101988.44;693932;28;22407;-60
2022/10/18 00:38:01;;;;;;;832.75;772.85;;;;;;;18.05;69.75;101996.63;695593;28;15035;-61
2022/10/18 00:38:22;;;;;;;848.15;787.80;;;;;;;18.05;69.68;101993.91;692078;28;46336;-61
2022/10/18 00:38:43;;;;;;;854.45;793.97;;;;;;;18.06;69.69;101992.88;692678;28;22385;-62
2022/10/18 00:39:06;;;;;;;839.88;779.85;;;;;;;18.05;69.62;101996.63;692180;28;46345;-62
2022/10/18 00:39:31;;;;;;;836.28;776.28;;;;;;;18.05;69.77;101995.78;692039;28;47256;-61
2022/10/18 00:39:52;;;;;;;877.58;816.40;;;;;;;18.06;69.73;101990.13;689709;28;114922;-61
2022/10/18 00:40:13;;;;;;;873.65;812.65;;;;;;;18.07;69.83;101996.44;693053;28;21641;-61
2022/10/18 00:40:34;;;;;;;867.20;806.33;;;;;;;18.06;69.88;101994.75;692894;28;22404;-62
2022/10/18 00:40:56;;;;;;;854.03;793.58;;;;;;;18.09;69.70;101999.84;692955;28;22396;-62
2022/10/18 00:41:20;;;;;;;843.17;783.05;;;;;;;18.10;69.70;101990.56;692221;28;45049;-62
2022/10/18 00:41:42;;;;;;;860.28;799.67;;;;;;;18.10;69.73;101993.31;689674;28;114988;-63
2022/10/18 00:42:03;;;;;;;874.85;813.80;;;;;;;18.11;69.82;101997.75;692896;28;21525;-62
2022/10/18 00:42:29;;;;;;;841.03;780.80;;;;;;;18.11;69.75;101998.56;693551;28;23434;-62
2022/10/18 00:42:50;;;;;;;859.60;798.88;;;;;;;18.11;69.57;101998.56;691724;28;136399;-60
2022/10/18 00:43:14;;;;;;;867.65;806.83;;;;;;;18.12;69.89;101994.81;695762;28;22453;-61
2022/10/18 00:43:54;;;;;;;864.67;803.67;;;;;;;18.13;69.77;101996.47;691871;28;113347;-61
2022/10/18 00:44:53;;;;;;;842.53;782.28;;;;;;;18.14;69.56;101991.88;691322;28;138107;-62
2022/10/18 00:45:18;;;;;;;843.80;783.53;;;;;;;18.15;69.85;101994.41;691534;28;136108;-62
2022/10/18 00:45:39;;;;;;;870.97;809.92;;;;;;;18.15;69.56;101999.88;692617;28;113583;-61
2022/10/18 00:46:01;;;;;;;912.50;850.28;;;;;;;18.17;69.62;101994.22;695570;28;22357;-62
2022/10/18 00:46:24;;;;;;;861.85;801.10;;;;;;;18.16;69.60;101998.81;694809;28;21749;-59
2022/10/18 00:46:48;;;;;;;817.58;758.13;;;;;;;18.18;69.54;101998.63;691453;28;69402;-61
2022/10/18 00:47:11;;;;;;;777.22;718.72;;;;;;;18.16;69.37;101998.81;688899;28;116210;-62
2022/10/18 00:47:33;;;;;;;778.80;720.28;;;;;;;18.17;69.62;101997.78;692117;28;45421;-62
2022/10/18 00:47:58;;;;;;;774.70;716.42;;;;;;;18.17;69.48;102002.44;691249;28;69662;-62
2022/10/18 00:48:20;;;;;;;813.50;754.10;;;;;;;18.18;69.41;101998.63;689272;28;113502;-62
2022/10/18 00:48:41;;;;;;;798.55;739.40;;;;;;;18.18;69.50;101999.50;691967;28;23244;-61
2022/10/18 00:49:08;;;;;;;760.63;702.67;;;;;;;18.18;69.50;102001.38;691656;28;45235;-62
2022/10/18 00:49:33;;;;;;;771.60;713.47;;;;;;;18.17;69.49;101995.06;688686;28;138007;-62
2022/10/18 00:49:58;;;;;;;768.13;710.15;;;;;;;18.17;69.59;101994.22;689323;28;114947;-62
2022/10/18 00:50:21;;;;;;;764.78;706.75;;;;;;;18.18;69.50;102001.38;689674;28;113597;-62
2022/10/18 00:50:42;;;;;;;761.17;703.33;;;;;;;18.17;69.41;101997.78;692207;28;46388;-62
2022/10/18 00:51:04;;;;;;;753.72;696.03;;;;;;;18.17;69.52;101995.06;691911;28;44343;-62
2022/10/18 00:51:28;;;;;;;760.50;702.58;;;;;;;18.17;69.67;102000.53;692519;28;22473;-62
2022/10/18 00:51:53;;;;;;;761.00;703.05;;;;;;;18.17;69.64;101997.78;690294;28;93022;-61
2022/10/18 00:52:16;;;;;;;750.60;692.78;;;;;;;18.16;69.46;101998.81;689206;28;115489;-61
2022/10/18 00:52:40;;;;;;;753.30;695.53;;;;;;;18.17;69.37;101989.59;690302;28;92520;-62
2022/10/18 00:53:02;;;;;;;747.90;690.28;;;;;;;18.18;69.50;101990.44;691170;28;69185;-61
2022/10/18 00:53:25;;;;;;;743.08;685.53;;;;;;;18.18;69.56;101991.28;691177;28;69375;-61
2022/10/18 00:53:46;;;;;;;740.03;682.53;;;;;;;18.17;69.58;101995.06;691750;28;44410;-62
2022/10/18 00:54:07;;;;;;;739.95;682.53;;;;;;;18.18;69.57;101998.63;692144;28;44187;-62
2022/10/18 00:54:30;;;;;;;738.40;680.97;;;;;;;18.16;69.60;101990.63;692882;28;22408;-61
2022/10/18 00:54:52;;;;;;;741.97;684.47;;;;;;;18.15;69.50;101988.09;691275;28;67013;-61
2022/10/18 00:55:14;;;;;;;749.35;691.65;;;;;;;18.15;69.55;101985.34;692636;28;22503;-61
2022/10/18 00:55:35;;;;;;;748.90;691.03;;;;;;;18.16;69.75;101987.06;691368;28;67479;-62
2022/10/18 00:55:57;;;;;;;741.28;683.58;;;;;;;18.16;69.52;101990.63;693279;28;1255;-62
2022/10/18 00:56:18;;;;;;;730.53;673.35;;;;;;;18.16;69.47;101996.09;692264;28;45221;-62
2022/10/18 00:56:43;;;;;;;730.92;673.72;;;;;;;18.17;69.62;101986.03;695533;28;22403;-62
2022/10/18 00:57:04;;;;;;;745.00;687.25;;;;;;;18.16;69.67;101993.34;692488;28;92304;-62
2022/10/18 00:57:26;;;;;;;749.15;691.28;;;;;;;18.16;69.85;101993.34;694474;28;43963;-62
2022/10/18 00:57:47;;;;;;;738.40;681.00;;;;;;;18.17;69.61;102005.16;694734;28;46199;-62
2022/10/18 00:58:10;;;;;;;730.38;673.17;;;;;;;18.18;69.70;101995.91;695737;28;22457;-62
2022/10/18 00:58:31;;;;;;;744.60;686.97;;;;;;;18.18;69.73;101998.63;694261;28;46258;-62
2022/10/18 00:58:52;;;;;;;744.55;686.95;;;;;;;18.18;69.76;101998.63;695781;28;22408;-61
2022/10/18 00:59:15;;;;;;;745.40;687.88;;;;;;;18.18;69.59;101996.75;694350;28;46375;-62
2022/10/18 00:59:37;;;;;;;750.78;693.03;;;;;;;18.14;69.66;101995.44;694085;28;69436;-62
2022/10/18 00:59:59;;;;;;;749.70;692.00;;;;;;;18.17;69.87;101994.22;694857;28;44368;-62
2022/10/18 01:00:21;;;;;;;737.50;680.08;;;;;;;18.17;69.58;102000.53;694737;28;45233;-62
2022/10/18 01:00:42;;;;;;;733.80;676.50;;;;;;;18.18;69.81;101993.16;695640;28;22437;-61
2022/10/18 01:01:03;;;;;;;735.45;678.15;;;;;;;18.19;69.72;102003.06;694833;28;45405;-62
2022/10/18 01:01:24;;;;;;;742.65;685.15;;;;;;;18.19;69.77;102000.34;695626;28;22372;-62
2022/10/18 01:01:46;;;;;;;734.17;676.90;;;;;;;18.19;69.59;102003.06;695581;28;22414;-62
2022/10/18 01:02:08;;;;;;;746.15;688.58;;;;;;;18.18;69.68;101996.75;694558;28;46339;-62
2022/10/18 01:02:30;;;;;;;758.67;700.67;;;;;;;18.17;69.67;101992.31;695480;28;22385;-62
2022/10/18 01:02:52;;;;;;;742.55;685.08;;;;;;;18.18;69.79;101994.03;691334;28;67454;-62
2022/10/18 01:03:13;;;;;;;742.33;684.83;;;;;;;18.19;69.79;101998.44;692952;28;21534;-62
2022/10/18 01:03:36;;;;;;;742.47;684.90;;;;;;;18.16;69.56;101996.09;691759;28;44568;-60
2022/10/18 01:03:57;;;;;;;739.38;681.88;;;;;;;18.17;69.61;101994.22;691440;28;67245;-62
2022/10/18 01:04:22;;;;;;;736.95;679.53;;;;;;;18.17;69.58;101992.31;693103;28;13429;-62
2022/10/18 01:04:43;;;;;;;745.00;687.30;;;;;;;18.18;69.71;102001.38;691822;28;45248;-62
2022/10/18 01:05:10;;;;;;;737.30;679.83;;;;;;;18.17;69.80;101996.97;692972;28;21594;-61
2022/10/18 01:05:31;;;;;;;746.47;688.85;;;;;;;18.17;69.68;101999.69;688860;28;137677;-62
2022/10/18 01:05:52;;;;;;;737.80;680.50;;;;;;;18.17;69.67;101996.97;692999;28;22402;-61
2022/10/18 01:06:13;;;;;;;731.45;674.40;;;;;;;18.17;69.58;102002.44;692936;28;22403;-62
2022/10/18 01:06:49;;;;;;;738.83;681.53;;;;;;;18.16;69.64;101995.25;692981;28;21539;-61
2022/10/18 01:07:31;;;;;;;742.70;685.10;;;;;;;18.16;69.91;101995.25;688278;28;138725;-62
2022/10/18 01:08:13;;;;;;;747.33;689.83;;;;;;;18.16;69.91;102007.03;688894;28;135965;-62
2022/10/18 01:08:44;;;;;;;733.70;676.45;;;;;;;18.16;69.74;102003.47;688336;28;135976;-62
2022/10/18 01:09:10;;;;;;;736.75;679.38;;;;;;;18.16;69.78;102000.72;688916;28;137756;-62
2022/10/18 01:09:38;;;;;;;731.10;673.80;;;;;;;18.15;69.90;101994.41;688172;28;160569;-62
2022/10/18 01:10:05;;;;;;;729.88;672.78;;;;;;;18.14;69.85;101992.72;688869;28;136288;-62
2022/10/18 01:10:30;;;;;;;742.47;684.97;;;;;;;18.15;69.73;102001.75;690806;28;71470;-62
2022/10/18 01:10:58;;;;;;;723.90;666.88;;;;;;;18.15;69.99;101996.28;689208;28;113561;-62
2022/10/18 01:11:32;;;;;;;730.53;673.30;;;;;;;18.14;70.04;102000.09;688925;28;138105;-62
2022/10/18 01:12:03;;;;;;;735.10;677.88;;;;;;;18.15;69.99;102001.75;688975;28;137434;-61
2022/10/18 01:12:32;;;;;;;713.95;657.17;;;;;;;18.16;70.04;101996.09;688828;28;135951;-61
2022/10/18 01:13:03;;;;;;;725.10;668.05;;;;;;;18.16;70.11;102001.56;688922;28;137748;-61
2022/10/18 01:13:34;;;;;;;729.08;671.90;;;;;;;18.17;69.93;102003.25;688749;28;137631;-61
2022/10/18 01:14:02;;;;;;;724.00;667.00;;;;;;;18.19;70.06;102003.06;687940;28;156550;-62
2022/10/18 01:14:35;;;;;;;725.25;668.20;;;;;;;18.20;70.00;102007.50;688843;28;136232;-62
2022/10/18 01:15:01;;;;;;;766.58;708.47;;;;;;;18.22;70.05;102013.59;689291;28;137519;-61
2022/10/18 01:15:26;;;;;;;737.20;679.80;;;;;;;18.23;69.89;102001.63;691591;28;138912;-61
2022/10/18 01:15:54;;;;;;;743.70;686.17;;;;;;;18.25;69.92;102005.00;692402;28;115881;-62
2022/10/18 01:16:21;;;;;;;743.00;685.50;;;;;;;18.26;69.95;102000.38;690520;28;160997;-62
2022/10/18 01:16:48;;;;;;;740.42;682.92;;;;;;;18.27;70.06;102004.81;688847;28;136760;-62
2022/10/18 01:17:14;;;;;;;756.35;698.25;;;;;;;18.28;69.89;102012.81;687835;28;136313;-62
2022/10/18 01:17:43;;;;;;;754.03;696.10;;;;;;;18.28;69.66;102010.09;688788;28;136410;-62
2022/10/18 01:18:14;;;;;;;754.60;696.78;;;;;;;18.30;69.71;102004.41;688058;28;136563;-62
2022/10/18 01:18:39;;;;;;;760.55;702.55;;;;;;;18.30;69.58;102009.91;684811;28;137388;-62
2022/10/18 01:19:04;;;;;;;761.00;703.00;;;;;;;18.30;69.63;102005.25;687678;28;115227;-62
2022/10/18 01:20:02;;;;;;;757.03;699.05;;;;;;;18.31;69.77;102006.97;686530;28;113316;-62
2022/10/18 01:20:41;;;;;;;711.17;654.47;;;;;;;18.28;69.51;102007.34;688670;28;136018;-62
2022/10/18 01:21:09;;;;;;;714.70;657.90;;;;;;;18.31;69.47;102006.97;688802;28;137540;-62
2022/10/18 01:21:37;;;;;;;739.10;681.67;;;;;;;18.31;69.75;102003.38;688761;28;136300;-62
2022/10/18 01:22:04;;;;;;;735.50;678.10;;;;;;;18.31;69.56;102012.44;688788;28;138029;-62
2022/10/18 01:22:32;;;;;;;753.13;695.47;;;;;;;18.31;69.58;102009.69;693975;28;62278;-62
2022/10/18 01:22:57;;;;;;;736.38;679.15;;;;;;;18.32;69.50;102008.66;692473;28;115998;-61
2022/10/18 01:23:32;;;;;;;728.90;671.72;;;;;;;18.33;69.75;102014.97;693004;28;92643;-62
2022/10/18 01:24:16;;;;;;;728.83;671.83;;;;;;;18.33;69.50;102010.34;689845;28;157427;-62
2022/10/18 01:24:46;;;;;;;733.75;676.55;;;;;;;18.35;69.48;102004.66;688874;28;136389;-63
2022/10/18 01:25:19;;;;;;;730.85;673.70;;;;;;;18.33;69.28;101999.41;688096;28;160723;-62
2022/10/18 01:25:50;;;;;;;737.97;680.45;;;;;;;18.35;69.34;102010.13;688919;28;135762;-62
2022/10/18 01:26:25;;;;;;;727.58;670.42;;;;;;;18.32;69.40;102000.47;688573;28;136009;-62
2022/10/18 01:27:10;;;;;;;728.05;670.85;;;;;;;18.35;69.43;102005.53;685994;28;136277;-61
2022/10/18 01:27:44;;;;;;;736.88;679.42;;;;;;;18.37;69.27;102005.34;685611;28;135987;-62
2022/10/18 01:28:12;;;;;;;737.85;680.45;;;;;;;18.35;69.31;102000.06;687491;28;137658;-61
2022/10/18 01:28:43;;;;;;;752.97;695.17;;;;;;;18.38;69.49;102001.53;688231;28;136191;-62
2022/10/18 01:29:15;;;;;;;737.42;680.13;;;;;;;18.40;69.33;101990.41;688895;28;138022;-62
2022/10/18 01:29:44;;;;;;;740.53;683.03;;;;;;;18.40;69.35;102004.06;688079;28;160698;-62
2022/10/18 01:30:28;;;;;;;746.67;689.10;;;;;;;18.42;69.22;101997.38;688901;28;137829;-62
2022/10/18 01:30:54;;;;;;;741.92;684.40;;;;;;;18.44;69.51;101999.91;688967;28;137547;-62
2022/10/18 01:31:19;;;;;;;732.53;675.35;;;;;;;18.46;69.38;101995.91;691521;28;62784;-62
2022/10/18 01:31:44;;;;;;;736.53;679.15;;;;;;;18.47;69.42;101996.78;689575;28;115279;-63
2022/10/18 01:32:09;;;;;;;722.70;665.72;;;;;;;18.47;69.51;101996.78;692378;28;92115;-63
2022/10/18 01:32:34;;;;;;;727.83;670.63;;;;;;;18.49;69.49;101991.94;691580;28;138170;-63
2022/10/18 01:33:00;;;;;;;740.65;683.25;;;;;;;18.50;69.54;101993.66;691379;28;138166;-62
2022/10/18 01:33:27;;;;;;;734.58;677.25;;;;;;;18.45;69.55;101986.03;691510;28;137959;-62
2022/10/18 01:33:51;;;;;;;718.42;661.53;;;;;;;18.52;69.59;101995.13;687031;28;179479;-63
2022/10/18 01:34:15;;;;;;;720.97;664.05;;;;;;;18.53;69.62;101994.09;690909;28;78014;-61
2022/10/18 01:34:37;;;;;;;717.57;660.60;;;;;;;18.55;69.72;101985.69;689571;28;115127;-61
2022/10/18 01:35:03;;;;;;;726.53;669.38;;;;;;;18.57;69.77;101990.94;691257;28;69703;-61
2022/10/18 01:35:31;;;;;;;734.33;677.03;;;;;;;18.59;69.44;101984.25;691631;28;60367;-61
2022/10/18 01:35:59;;;;;;;726.45;669.25;;;;;;;18.59;69.88;101986.97;691036;28;69504;-61
2022/10/18 01:36:23;;;;;;;731.63;674.30;;;;;;;18.60;69.62;101988.66;688874;28;137625;-59
2022/10/18 01:36:47;;;;;;;732.72;675.45;;;;;;;18.61;69.62;101992.25;691697;28;67474;-62
2022/10/18 01:37:10;;;;;;;718.20;661.05;;;;;;;18.60;69.49;101988.66;692677;28;91961;-61
2022/10/18 01:37:34;;;;;;;726.33;669.15;;;;;;;18.61;69.38;101989.50;693070;28;93006;-62
2022/10/18 01:38:01;;;;;;;730.03;672.78;;;;;;;18.61;69.46;101982.13;693064;28;93038;-62
2022/10/18 01:38:23;;;;;;;743.75;686.13;;;;;;;18.62;69.40;101986.56;688705;28;138037;-62
2022/10/18 01:38:46;;;;;;;737.95;680.50;;;;;;;18.63;69.51;101985.50;691744;28;45285;-61
2022/10/18 01:39:12;;;;;;;743.72;686.13;;;;;;;18.62;69.38;101982.97;691251;28;69500;-60
2022/10/18 01:39:37;;;;;;;738.78;681.38;;;;;;;18.65;69.35;101982.56;688890;28;136373;-61
2022/10/18 01:40:03;;;;;;;733.15;675.85;;;;;;;18.66;69.43;101985.13;690259;28;92976;-61
2022/10/18 01:40:24;;;;;;;734.25;676.92;;;;;;;18.66;69.51;101979.63;688821;28;138752;-63
2022/10/18 01:40:48;;;;;;;739.60;682.30;;;;;;;18.69;69.56;101975.66;692107;28;46252;-62
2022/10/18 01:41:11;;;;;;;743.33;685.97;;;;;;;18.72;69.82;101978.00;691264;28;69411;-62
2022/10/18 01:41:33;;;;;;;738.50;681.28;;;;;;;18.73;69.41;101979.69;690416;28;92226;-62
2022/10/18 01:41:55;;;;;;;730.13;673.13;;;;;;;18.75;69.75;101984.97;691713;28;45266;-62
2022/10/18 01:42:18;;;;;;;715.42;658.75;;;;;;;18.76;69.80;101978.44;691922;28;44359;-62
2022/10/18 01:42:40;;;;;;;714.17;657.45;;;;;;;18.79;69.77;101983.50;691331;28;69632;-62
2022/10/18 01:43:02;;;;;;;720.22;663.35;;;;;;;18.80;69.99;101985.22;688951;28;43005;-61
2022/10/18 01:43:29;;;;;;;722.60;665.60;;;;;;;18.81;69.84;101982.28;689564;28;60040;-63
2022/10/18 01:43:55;;;;;;;742.90;685.42;;;;;;;18.82;70.14;101983.94;691061;28;67345;-62
2022/10/18 01:44:20;;;;;;;737.53;680.17;;;;;;;18.84;69.76;101981.00;688603;28;138299;-62
2022/10/18 01:44:43;;;;;;;733.60;676.33;;;;;;;18.85;69.92;101977.25;689529;28;113671;-63
2022/10/18 01:45:06;;;;;;;739.05;681.72;;;;;;;18.87;70.04;101986.09;692194;28;67480;-64
2022/10/18 01:45:30;;;;;;;725.17;668.10;;;;;;;18.87;70.01;101977.91;690347;28;92225;-63
2022/10/18 01:45:53;;;;;;;754.85;697.03;;;;;;;18.90;69.95;101988.44;690355;28;92146;-63
2022/10/18 01:46:18;;;;;;;723.33;666.38;;;;;;;18.90;69.80;101986.56;691161;28;69401;-63
2022/10/18 01:46:40;;;;;;;744.80;687.33;;;;;;;18.94;69.89;101981.53;691184;28;115024;-63
2022/10/18 01:47:03;;;;;;;743.78;686.10;;;;;;;18.95;69.94;101987.84;691578;28;44071;-63
2022/10/18 01:47:24;;;;;;;747.05;689.15;;;;;;;18.96;69.88;101981.31;691581;28;44388;-62
2022/10/18 01:47:47;;;;;;;744.78;687.22;;;;;;;18.95;69.91;101980.50;692162;28;46320;-63
2022/10/18 01:48:09;;;;;;;750.67;692.97;;;;;;;18.99;69.76;101983.66;690943;28;68331;-64
2022/10/18 01:48:31;;;;;;;732.60;675.28;;;;;;;19.00;69.90;101980.72;691379;28;45231;-63
2022/10/18 01:48:52;;;;;;;734.40;677.10;;;;;;;19.00;69.95;101977.97;692860;28;23528;-63